Orlando, Florida
Traffic Map
Current Weather Conditions
Orlando, Florida
Clear
Clear
82°
Feels Like: 89°
Wind Chill: 82° Ceiling: Unl
Heat Index: 89° Visibility: 10mi
Dew Point: 76° Wind: 10mph
Humidity: 82% Direction: 90° (E)
Pressure: 30.09in Gusts: 0mph
Raw Report DataKORL 172353Z 09009KT 10SM CLR 28/24 A3009 RMK AO2 SLP190 60000 T02780244 10339 20278 56004
Traffic Incident Summary
Active as of:
Severity:
Category:
InformationThere was an issue retrieving the traffic information for this location. Please try a different location or try again shortly.
Advertisements